Time;durP1;ratioP1;P1;durP2;ratioP2;P2;SDS_P1;SDS_P2;PMS_P1;PMS_P2;Temp;Humidity;BMP_temperature;BMP_pressure;BME280_temperature;BME280_humidity;BME280_pressure;Samples;Min_cycle;Max_cycle;Signal;HPM_P1;HPM_P2
2022/12/02 00:02:02;;;;;;;57.50;29.87;;;3.40;99.90;;;;;;4972950;28;20213;-70
2022/12/02 00:04:28;;;;;;;60.23;29.57;;;3.40;99.90;;;;;;4974979;28;20165;-70
2022/12/02 00:06:56;;;;;;;64.80;31.77;;;3.40;99.90;;;;;;4974521;28;20592;-70
2022/12/02 00:09:34;;;;;;;59.03;30.00;;;3.40;99.90;;;;;;4973011;28;20338;-70
2022/12/02 00:12:12;;;;;;;63.13;32.07;;;3.40;99.90;;;;;;4989050;28;20635;-70
2022/12/02 00:14:38;;;;;;;59.73;30.37;;;3.40;99.90;;;;;;4988950;28;20165;-70
2022/12/02 00:17:04;;;;;;;62.47;30.13;;;3.30;99.90;;;;;;4974760;28;20173;-70
2022/12/02 00:19:30;;;;;;;61.33;31.00;;;3.40;99.90;;;;;;4972761;28;20181;-70
2022/12/02 00:21:56;;;;;;;64.03;31.27;;;3.40;99.90;;;;;;4972916;28;20742;-71
2022/12/02 00:24:21;;;;;;;56.50;30.80;;;3.40;99.90;;;;;;4974120;28;20521;-70
2022/12/02 00:26:47;;;;;;;64.10;30.83;;;3.40;99.90;;;;;;5016000;28;20198;-70
2022/12/02 00:29:13;;;;;;;65.63;30.67;;;3.30;99.90;;;;;;5051447;28;20227;-69
2022/12/02 00:31:39;;;;;;;59.40;29.80;;;3.30;99.90;;;;;;5052615;28;20209;-70
2022/12/02 00:34:05;;;;;;;55.90;30.07;;;3.30;99.90;;;;;;5052695;28;20589;-70
2022/12/02 00:36:31;;;;;;;66.80;32.53;;;3.30;99.90;;;;;;5052475;28;20174;-70
2022/12/02 00:38:57;;;;;;;64.67;30.23;;;3.30;99.90;;;;;;5057615;28;20178;-70
2022/12/02 00:41:23;;;;;;;56.93;30.00;;;3.30;99.90;;;;;;5057418;28;20256;-70
2022/12/02 00:46:34;;;;;;;64.60;31.20;;;3.40;99.90;;;;;;5056904;28;20213;-69
2022/12/02 00:49:02;;;;;;;59.40;31.50;;;3.30;99.90;;;;;;5056368;28;20183;-69
2022/12/02 00:51:28;;;;;;;63.47;30.23;;;3.30;99.90;;;;;;5055841;28;20209;-70
2022/12/02 00:53:54;;;;;;;72.07;31.17;;;3.40;99.90;;;;;;5056214;28;20262;-70
2022/12/02 00:56:20;;;;;;;64.27;30.17;;;3.40;99.90;;;;;;5056110;28;20194;-70
2022/12/02 00:58:46;;;;;;;67.73;32.73;;;3.40;99.90;;;;;;5037998;28;20193;-70
2022/12/02 01:01:12;;;;;;;63.67;31.37;;;3.30;99.90;;;;;;5055627;28;20217;-70
2022/12/02 01:03:39;;;;;;;69.47;31.53;;;3.30;99.90;;;;;;5055807;28;20205;-70
2022/12/02 01:06:05;;;;;;;63.73;29.73;;;3.30;99.90;;;;;;5055623;28;20301;-70
2022/12/02 01:08:30;;;;;;;61.40;30.47;;;3.40;99.90;;;;;;5055771;28;20647;-70
2022/12/02 01:10:56;;;;;;;66.17;29.40;;;3.40;99.90;;;;;;5055765;28;20206;-70
2022/12/02 01:13:24;;;;;;;63.00;30.60;;;3.40;99.90;;;;;;5055508;28;20229;-70
2022/12/02 01:15:50;;;;;;;58.67;29.50;;;3.40;99.90;;;;;;5055510;28;20674;-70
2022/12/02 01:18:16;;;;;;;67.30;30.60;;;3.40;99.90;;;;;;5055667;28;20166;-70
2022/12/02 01:20:42;;;;;;;59.70;31.30;;;3.30;99.90;;;;;;5056161;28;20190;-70
2022/12/02 01:23:08;;;;;;;63.63;29.80;;;3.40;99.90;;;;;;5055427;28;20174;-70
2022/12/02 01:25:33;;;;;;;66.40;31.17;;;3.30;99.90;;;;;;5055677;28;20655;-70
2022/12/02 01:27:59;;;;;;;70.13;31.90;;;3.30;99.90;;;;;;5037410;28;20190;-70
2022/12/02 01:30:26;;;;;;;71.00;32.57;;;3.30;99.90;;;;;;5035278;28;20237;-70
2022/12/02 01:32:51;;;;;;;68.77;32.70;;;3.30;99.90;;;;;;5035274;28;20179;-70
2022/12/02 01:35:19;;;;;;;67.13;32.27;;;3.30;99.90;;;;;;5035573;28;20178;-70
2022/12/02 01:37:45;;;;;;;69.57;32.73;;;3.30;99.90;;;;;;5035339;28;20175;-70
2022/12/02 01:40:12;;;;;;;64.77;31.27;;;3.40;99.90;;;;;;5035189;28;20203;-70
2022/12/02 01:42:39;;;;;;;69.67;31.47;;;3.40;99.90;;;;;;5035101;28;20203;-70
2022/12/02 01:45:06;;;;;;;69.03;33.03;;;3.40;99.90;;;;;;5034953;28;20229;-70
2022/12/02 01:47:33;;;;;;;73.47;34.50;;;3.40;99.90;;;;;;5035278;28;20218;-70
2022/12/02 01:49:59;;;;;;;69.33;31.20;;;3.40;99.90;;;;;;5034139;28;20199;-70
2022/12/02 01:52:25;;;;;;;66.70;31.87;;;3.40;99.90;;;;;;5017089;28;20207;-70
2022/12/02 01:54:51;;;;;;;68.23;30.67;;;3.30;99.90;;;;;;5034870;28;20181;-70
2022/12/02 01:57:21;;;;;;;73.70;33.50;;;3.40;99.90;;;;;;5017101;28;20641;-70
2022/12/02 01:59:47;;;;;;;68.43;31.10;;;3.40;99.90;;;;;;5016932;28;20167;-70
2022/12/02 02:02:43;;;;;;;71.97;32.63;;;3.40;99.90;;;;;;5017025;28;20182;-70
2022/12/02 02:05:20;;;;;;;70.20;32.57;;;3.40;99.90;;;;;;5026113;28;20197;-70
2022/12/02 02:07:48;;;;;;;74.67;34.40;;;3.40;99.90;;;;;;5034580;28;20160;-70
2022/12/02 02:10:15;;;;;;;64.77;30.70;;;3.30;99.90;;;;;;5016678;28;20218;-70
2022/12/02 02:12:41;;;;;;;75.17;33.20;;;3.40;99.90;;;;;;5034740;28;20233;-70
2022/12/02 02:15:10;;;;;;;72.93;33.03;;;3.30;99.90;;;;;;5034573;28;20207;-70
2022/12/02 02:17:36;;;;;;;65.57;33.33;;;3.30;99.90;;;;;;5034702;28;20636;-70
2022/12/02 02:20:05;;;;;;;70.67;32.37;;;3.30;99.90;;;;;;5034346;28;20195;-69
2022/12/02 02:22:51;;;;;;;67.53;32.57;;;3.30;99.90;;;;;;5034554;28;20207;-70
2022/12/02 02:25:17;;;;;;;76.87;34.03;;;3.30;99.90;;;;;;5016343;28;20194;-70
2022/12/02 02:27:53;;;;;;;62.73;30.50;;;3.40;99.90;;;;;;5034174;28;20190;-70
2022/12/02 02:30:19;;;;;;;69.23;32.60;;;3.30;99.90;;;;;;5034138;28;20191;-70
2022/12/02 02:32:45;;;;;;;77.17;33.03;;;3.30;99.90;;;;;;5034060;28;20253;-70
2022/12/02 02:35:12;;;;;;;76.87;32.80;;;3.40;99.90;;;;;;5034361;28;20171;-70
2022/12/02 02:37:38;;;;;;;69.93;33.47;;;3.30;99.90;;;;;;5034357;28;20209;-70
2022/12/02 02:40:05;;;;;;;72.43;32.07;;;3.30;99.90;;;;;;5034004;28;20290;-70
2022/12/02 02:42:31;;;;;;;73.53;32.83;;;3.30;99.90;;;;;;5034527;28;20274;-70
2022/12/02 02:44:57;;;;;;;75.13;34.60;;;3.30;99.90;;;;;;5033972;28;20547;-70
2022/12/02 02:47:23;;;;;;;68.30;33.97;;;3.30;99.90;;;;;;5032674;28;20175;-69
2022/12/02 02:49:48;;;;;;;68.77;33.13;;;3.30;99.90;;;;;;5016419;28;20521;-70
2022/12/02 02:52:14;;;;;;;66.20;32.03;;;3.30;99.90;;;;;;5032602;28;20203;-70
2022/12/02 02:54:40;;;;;;;65.43;31.77;;;3.30;99.90;;;;;;5032529;28;20185;-70
2022/12/02 02:57:08;;;;;;;71.20;32.63;;;3.30;99.90;;;;;;5033813;28;20205;-70
2022/12/02 02:59:35;;;;;;;73.20;31.87;;;3.30;99.90;;;;;;5033564;28;20178;-70
2022/12/02 03:02:05;;;;;;;69.20;31.87;;;3.30;99.90;;;;;;5033625;28;20222;-70
2022/12/02 03:04:31;;;;;;;69.07;32.67;;;3.30;99.90;;;;;;5032449;28;20181;-70
2022/12/02 03:06:57;;;;;;;81.77;34.37;;;3.30;99.90;;;;;;5015906;28;20183;-70
2022/12/02 03:09:23;;;;;;;66.20;32.20;;;3.30;99.90;;;;;;5032306;28;20187;-70
2022/12/02 03:11:52;;;;;;;75.70;35.77;;;3.30;99.90;;;;;;5034050;28;20621;-70
2022/12/02 03:14:19;;;;;;;72.53;32.20;;;3.30;99.90;;;;;;5033579;28;20643;-70
2022/12/02 03:16:46;;;;;;;79.10;33.17;;;3.30;99.90;;;;;;5033678;28;20197;-70
2022/12/02 03:19:12;;;;;;;69.07;32.97;;;3.30;99.90;;;;;;5033683;28;20636;-70
2022/12/02 03:21:38;;;;;;;66.83;32.27;;;3.30;99.90;;;;;;5033328;28;20294;-70
2022/12/02 03:24:06;;;;;;;69.63;31.97;;;3.30;99.90;;;;;;5015726;28;20261;-70
2022/12/02 03:26:33;;;;;;;71.73;34.77;;;3.30;99.90;;;;;;5033268;28;20595;-70
2022/12/02 03:29:00;;;;;;;67.57;32.77;;;3.30;99.90;;;;;;5032080;28;20205;-70
2022/12/02 03:31:26;;;;;;;68.60;33.43;;;3.30;99.90;;;;;;5033190;28;20203;-70
2022/12/02 03:33:53;;;;;;;76.03;33.67;;;3.30;99.90;;;;;;5033182;28;20178;-70
2022/12/02 03:36:19;;;;;;;78.60;35.03;;;3.30;99.90;;;;;;5033779;28;20539;-70
2022/12/02 03:38:46;;;;;;;88.07;35.33;;;3.30;99.90;;;;;;5033534;28;20191;-70
2022/12/02 03:41:12;;;;;;;80.03;34.77;;;3.30;99.90;;;;;;5033139;28;20191;-70
2022/12/02 03:43:38;;;;;;;82.97;36.87;;;3.30;99.90;;;;;;5033828;28;20282;-70
2022/12/02 03:46:06;;;;;;;83.83;36.07;;;3.20;99.90;;;;;;5031884;28;20695;-71
2022/12/02 03:48:35;;;;;;;86.77;36.37;;;3.20;99.90;;;;;;5033430;28;20266;-70
2022/12/02 03:51:00;;;;;;;84.07;34.87;;;3.30;99.90;;;;;;5032995;28;20218;-70
2022/12/02 03:53:27;;;;;;;90.70;35.73;;;3.30;99.90;;;;;;5033161;28;20167;-70
2022/12/02 03:55:54;;;;;;;94.33;36.90;;;3.30;99.90;;;;;;5033058;28;20168;-71
2022/12/02 03:58:30;;;;;;;95.80;38.40;;;3.30;99.90;;;;;;5033376;28;20229;-70
2022/12/02 04:00:56;;;;;;;86.07;36.17;;;3.30;99.90;;;;;;5033240;28;20229;-70
2022/12/02 04:03:22;;;;;;;95.23;37.60;;;3.20;99.90;;;;;;5033435;28;20183;-70
2022/12/02 04:05:47;;;;;;;102.53;37.87;;;3.20;99.90;;;;;;5033644;28;20531;-69
2022/12/02 04:08:13;;;;;;;99.00;39.63;;;3.20;99.90;;;;;;5031622;28;20225;-70
2022/12/02 04:10:39;;;;;;;90.17;36.47;;;3.20;99.90;;;;;;5032935;28;20663;-70
2022/12/02 04:13:04;;;;;;;89.63;34.80;;;3.20;99.90;;;;;;5034161;28;20175;-70
2022/12/02 04:15:30;;;;;;;103.50;36.67;;;3.20;99.90;;;;;;5036760;28;20389;-70
2022/12/02 04:17:56;;;;;;;89.43;36.00;;;3.20;99.90;;;;;;5036805;28;20176;-70
2022/12/02 04:20:22;;;;;;;92.03;36.03;;;3.20;99.90;;;;;;5036936;28;20229;-70
2022/12/02 04:22:47;;;;;;;94.63;35.53;;;3.20;99.90;;;;;;5036846;28;20175;-70
2022/12/02 04:25:13;;;;;;;92.30;34.40;;;3.20;99.90;;;;;;5036992;28;20201;-70
2022/12/02 04:27:39;;;;;;;101.03;35.70;;;3.10;99.90;;;;;;5036656;28;20270;-70
2022/12/02 04:30:05;;;;;;;88.63;34.20;;;3.10;99.90;;;;;;5036944;28;20199;-70
2022/12/02 04:32:31;;;;;;;82.37;32.33;;;3.10;99.90;;;;;;5018799;28;20206;-70
2022/12/02 04:34:57;;;;;;;91.97;33.80;;;3.10;99.90;;;;;;5036505;28;20224;-70
2022/12/02 04:37:23;;;;;;;91.53;33.40;;;3.20;99.90;;;;;;5036500;28;20194;-70
2022/12/02 04:39:48;;;;;;;80.13;31.87;;;3.10;99.90;;;;;;5036692;28;20187;-70
2022/12/02 04:42:14;;;;;;;87.90;32.83;;;3.10;99.90;;;;;;5036547;28;20183;-70
2022/12/02 04:44:40;;;;;;;89.40;32.80;;;3.10;99.90;;;;;;5036286;28;20255;-69
2022/12/02 04:47:06;;;;;;;87.87;32.93;;;3.20;99.90;;;;;;5035036;28;20190;-69
2022/12/02 04:49:31;;;;;;;80.97;31.47;;;3.10;99.90;;;;;;5036207;28;20575;-70
2022/12/02 04:51:57;;;;;;;86.87;33.50;;;3.10;99.90;;;;;;5036595;28;20206;-70
2022/12/02 04:54:23;;;;;;;86.37;33.40;;;3.20;99.90;;;;;;5036147;28;20657;-69
2022/12/02 04:56:48;;;;;;;80.23;34.67;;;3.20;99.90;;;;;;5036152;28;20175;-70
2022/12/02 04:59:14;;;;;;;77.53;31.67;;;3.10;99.90;;;;;;5035169;28;20167;-70
2022/12/02 05:01:40;;;;;;;81.53;33.17;;;3.10;99.90;;;;;;5035953;28;20307;-69
2022/12/02 05:04:05;;;;;;;77.47;33.07;;;3.10;99.90;;;;;;5036325;28;20293;-70
2022/12/02 05:06:31;;;;;;;74.20;30.17;;;3.10;99.90;;;;;;5036238;28;20175;-71
2022/12/02 05:08:57;;;;;;;71.47;30.70;;;3.10;99.90;;;;;;5035832;28;20522;-69
2022/12/02 05:11:22;;;;;;;72.10;29.60;;;3.10;99.90;;;;;;5036551;28;20203;-70
2022/12/02 05:13:48;;;;;;;71.40;32.67;;;3.10;99.90;;;;;;5036175;28;20186;-69
2022/12/02 05:16:14;;;;;;;78.97;31.83;;;3.10;99.90;;;;;;5035757;28;20171;-69
2022/12/02 05:18:39;;;;;;;73.80;30.53;;;3.10;99.90;;;;;;5035999;28;20168;-69
2022/12/02 05:21:05;;;;;;;67.37;31.63;;;3.10;99.90;;;;;;5036559;28;20198;-70
2022/12/02 05:23:31;;;;;;;70.07;30.73;;;3.10;99.90;;;;;;5034948;28;20225;-70
2022/12/02 05:25:57;;;;;;;66.70;30.23;;;3.10;99.90;;;;;;5035632;28;20667;-69
2022/12/02 05:28:22;;;;;;;68.30;30.73;;;3.10;99.90;;;;;;5049492;28;20566;-70
2022/12/02 05:30:48;;;;;;;70.90;30.17;;;3.10;99.90;;;;;;5036065;28;20202;-69
2022/12/02 05:33:14;;;;;;;73.80;31.03;;;3.10;99.90;;;;;;5035500;28;20159;-70
2022/12/02 05:35:39;;;;;;;84.13;31.87;;;3.10;99.90;;;;;;5035555;28;20179;-70
2022/12/02 05:38:05;;;;;;;75.67;31.50;;;3.00;99.90;;;;;;5035448;28;20651;-69
2022/12/02 05:40:31;;;;;;;68.23;28.97;;;3.10;99.90;;;;;;5035582;28;20261;-69
2022/12/02 05:43:20;;;;;;;69.57;29.07;;;3.00;99.90;;;;;;5035194;28;20650;-69
2022/12/02 05:45:46;;;;;;;68.03;30.87;;;3.00;99.90;;;;;;5035246;28;20167;-69
2022/12/02 05:48:14;;;;;;;83.43;31.63;;;3.00;99.90;;;;;;5050346;28;20647;-69
2022/12/02 05:50:41;;;;;;;74.83;30.87;;;3.00;99.90;;;;;;5035065;28;20244;-69
2022/12/02 05:53:27;;;;;;;71.87;30.60;;;3.10;99.90;;;;;;5034863;28;20274;-69
2022/12/02 05:55:55;;;;;;;75.10;28.83;;;3.00;99.90;;;;;;5050110;28;20171;-69
2022/12/02 05:58:22;;;;;;;78.03;30.70;;;3.00;99.90;;;;;;5035298;28;20171;-69
2022/12/02 06:00:56;;;;;;;65.33;27.83;;;3.10;99.90;;;;;;5033993;28;20209;-69
2022/12/02 06:03:22;;;;;;;77.17;30.40;;;3.10;99.90;;;;;;5033826;28;20199;-69
2022/12/02 06:05:49;;;;;;;80.13;30.33;;;3.10;99.90;;;;;;5035101;28;20210;-69
2022/12/02 06:08:25;;;;;;;66.27;30.47;;;3.00;99.90;;;;;;5034584;28;20229;-69
2022/12/02 06:11:03;;;;;;;78.80;28.93;;;3.10;99.90;;;;;;5035297;28;20222;-69
2022/12/02 06:13:34;;;;;;;73.17;30.67;;;3.10;99.90;;;;;;5034739;28;20167;-69
2022/12/02 06:16:00;;;;;;;67.73;30.37;;;3.10;99.90;;;;;;5033076;28;20175;-69
2022/12/02 06:18:33;;;;;;;71.10;29.03;;;3.00;99.90;;;;;;5034513;28;20176;-69
2022/12/02 06:21:09;;;;;;;68.90;29.83;;;3.00;99.90;;;;;;5050155;28;20566;-69
2022/12/02 06:23:40;;;;;;;72.10;29.90;;;3.00;99.90;;;;;;5034400;28;20179;-69
2022/12/02 06:26:06;;;;;;;72.00;29.57;;;3.00;99.90;;;;;;5034573;28;20171;-69
2022/12/02 06:28:37;;;;;;;74.57;31.33;;;3.10;99.90;;;;;;5034443;28;20221;-71
2022/12/02 06:31:16;;;;;;;63.20;29.37;;;3.00;99.90;;;;;;5034173;28;20234;-69
2022/12/02 06:33:44;;;;;;;63.63;30.13;;;3.00;99.90;;;;;;5034180;28;20242;-69
2022/12/02 06:36:14;;;;;;;63.17;28.30;;;3.00;99.90;;;;;;5033810;28;20176;-69
2022/12/02 06:38:48;;;;;;;68.13;28.90;;;3.10;99.90;;;;;;5034046;28;20724;-69
2022/12/02 06:41:22;;;;;;;61.93;28.60;;;3.10;99.90;;;;;;5034070;28;20245;-70
2022/12/02 06:46:34;;;;;;;59.80;28.67;;;3.10;99.90;;;;;;5035224;28;20550;-66
2022/12/02 06:49:21;;;;;;;60.30;28.00;;;3.10;99.90;;;;;;5034600;28;20160;-66
2022/12/02 06:51:56;;;;;;;61.53;28.07;;;3.10;99.90;;;;;;5049383;28;20286;-72
2022/12/02 06:54:26;;;;;;;62.93;27.43;;;3.10;99.90;;;;;;5033908;28;20261;-66
2022/12/02 06:56:52;;;;;;;57.17;27.57;;;3.10;99.90;;;;;;5034285;28;20175;-66
2022/12/02 06:59:22;;;;;;;69.53;28.33;;;3.00;99.90;;;;;;5034345;28;20186;-66
2022/12/02 07:01:51;;;;;;;56.03;27.90;;;3.10;99.90;;;;;;5033542;28;20209;-68
2022/12/02 07:04:29;;;;;;;57.03;26.03;;;3.10;99.90;;;;;;5033715;28;20183;-67
2022/12/02 07:07:15;;;;;;;56.47;27.57;;;3.00;99.90;;;;;;5034263;28;20213;-67
2022/12/02 07:09:44;;;;;;;59.70;26.13;;;3.00;99.90;;;;;;5048949;28;20532;-68
2022/12/02 07:12:37;;;;;;;47.27;26.40;;;3.00;99.90;;;;;;5033713;28;20238;-66
2022/12/02 07:15:44;;;;;;;54.83;27.30;;;2.90;99.90;;;;;;5042949;28;20567;-66
2022/12/02 07:18:17;;;;;;;63.50;28.07;;;3.00;99.90;;;;;;4992201;28;20494;-66
2022/12/02 07:20:45;;;;;;;56.97;27.50;;;3.00;99.90;;;;;;5026024;28;20207;-66
2022/12/02 07:23:21;;;;;;;62.97;28.10;;;3.00;99.90;;;;;;5033393;28;20175;-66
2022/12/02 07:25:49;;;;;;;55.77;26.93;;;3.00;99.90;;;;;;5033371;28;20181;-66
2022/12/02 07:28:34;;;;;;;49.83;27.73;;;3.00;99.90;;;;;;5033215;28;20188;-66
2022/12/02 07:31:09;;;;;;;58.37;28.20;;;2.90;99.90;;;;;;5033213;28;20202;-66
2022/12/02 07:33:35;;;;;;;56.70;27.43;;;2.90;99.90;;;;;;5033445;28;20159;-66
2022/12/02 07:36:00;;;;;;;56.63;28.20;;;3.00;99.90;;;;;;5033128;28;20193;-66
2022/12/02 07:38:26;;;;;;;52.47;27.07;;;3.00;99.90;;;;;;5033301;28;20175;-66
2022/12/02 07:40:52;;;;;;;56.77;26.53;;;2.90;99.90;;;;;;5033705;28;20592;-66
2022/12/02 07:43:18;;;;;;;47.97;25.07;;;2.90;99.90;;;;;;5015431;28;20207;-66
2022/12/02 07:45:43;;;;;;;53.50;26.77;;;2.90;99.90;;;;;;5033008;28;20679;-66
2022/12/02 07:48:09;;;;;;;56.43;27.03;;;2.90;99.90;;;;;;5036331;28;20209;-66
2022/12/02 07:50:35;;;;;;;49.10;25.40;;;3.00;99.90;;;;;;5037129;28;20261;-66
2022/12/02 07:53:01;;;;;;;51.37;26.63;;;3.00;99.90;;;;;;5035744;28;20206;-66
2022/12/02 07:55:27;;;;;;;47.33;23.90;;;3.00;99.90;;;;;;5035692;28;20640;-66
2022/12/02 07:57:53;;;;;;;49.03;24.63;;;3.00;99.90;;;;;;5036976;28;20201;-66
2022/12/02 08:00:19;;;;;;;49.03;24.00;;;3.00;99.90;;;;;;5036850;28;20280;-66
2022/12/02 08:02:45;;;;;;;48.53;24.33;;;2.90;99.90;;;;;;5036977;28;20237;-66
2022/12/02 08:05:11;;;;;;;43.27;23.27;;;2.90;99.90;;;;;;5037228;28;20616;-66
2022/12/02 08:07:37;;;;;;;48.47;22.83;;;2.90;99.90;;;;;;5036853;28;20176;-66
2022/12/02 08:10:04;;;;;;;41.17;22.63;;;2.90;99.90;;;;;;5036723;28;20681;-66
2022/12/02 08:12:30;;;;;;;48.07;22.63;;;2.90;99.90;;;;;;5035317;28;20679;-66
2022/12/02 08:14:56;;;;;;;37.50;22.17;;;2.90;99.90;;;;;;5037047;28;20178;-67
2022/12/02 08:17:22;;;;;;;37.77;22.10;;;2.90;99.90;;;;;;5036711;28;20171;-66
2022/12/02 08:19:47;;;;;;;38.83;21.93;;;2.90;99.90;;;;;;5036493;28;20171;-67
2022/12/02 08:22:13;;;;;;;36.00;21.07;;;2.90;99.90;;;;;;5036827;28;20581;-66
2022/12/02 08:24:39;;;;;;;36.57;20.70;;;2.90;99.90;;;;;;5036428;28;20179;-66
2022/12/02 08:27:04;;;;;;;32.60;20.73;;;2.90;99.90;;;;;;5036396;28;20217;-66
2022/12/02 08:29:30;;;;;;;33.67;20.07;;;2.90;99.90;;;;;;5036469;28;20175;-66
2022/12/02 08:31:56;;;;;;;35.97;21.63;;;2.90;99.90;;;;;;5036167;28;20202;-66
2022/12/02 08:34:22;;;;;;;39.13;20.27;;;2.90;99.90;;;;;;5035082;28;20175;-66
2022/12/02 08:36:48;;;;;;;32.87;19.70;;;2.90;99.90;;;;;;5036508;28;20567;-66
2022/12/02 08:39:14;;;;;;;29.57;19.97;;;2.90;99.90;;;;;;5036903;28;20180;-66
2022/12/02 08:41:39;;;;;;;37.53;21.13;;;2.90;99.90;;;;;;5036191;28;20260;-66
2022/12/02 08:44:05;;;;;;;29.47;18.20;;;2.80;99.90;;;;;;5036579;28;20198;-66
2022/12/02 08:46:31;;;;;;;32.27;19.47;;;2.90;99.90;;;;;;5036193;28;20175;-66
2022/12/02 08:48:58;;;;;;;32.77;18.40;;;2.90;99.90;;;;;;5036460;28;20180;-66
2022/12/02 08:51:23;;;;;;;30.90;18.37;;;2.90;99.90;;;;;;5035935;28;20207;-66
2022/12/02 08:53:49;;;;;;;33.00;18.70;;;2.90;99.90;;;;;;5035988;28;20179;-66
2022/12/02 08:56:15;;;;;;;27.07;17.07;;;2.90;99.90;;;;;;5036038;28;20171;-66
2022/12/02 08:58:41;;;;;;;33.03;19.67;;;2.90;99.90;;;;;;5036004;28;20175;-66
2022/12/02 09:01:06;;;;;;;28.43;18.77;;;2.90;99.90;;;;;;5035754;28;20191;-66
2022/12/02 09:03:32;;;;;;;34.73;20.60;;;2.90;99.90;;;;;;5036387;28;20203;-66
2022/12/02 09:05:58;;;;;;;31.83;20.43;;;2.90;99.90;;;;;;5035923;28;20540;-66
2022/12/02 09:08:24;;;;;;;32.67;19.93;;;2.80;99.90;;;;;;5036054;28;20187;-66
2022/12/02 09:10:50;;;;;;;37.07;21.13;;;2.90;99.90;;;;;;5035790;28;20222;-66
2022/12/02 09:13:16;;;;;;;30.70;20.13;;;2.90;99.90;;;;;;5034437;28;20573;-66
2022/12/02 09:15:41;;;;;;;31.50;18.20;;;2.90;99.90;;;;;;5035561;28;20182;-66
2022/12/02 09:18:07;;;;;;;32.40;19.20;;;2.90;99.90;;;;;;5036189;28;20257;-66
2022/12/02 09:20:33;;;;;;;35.23;21.37;;;2.90;99.90;;;;;;5034146;28;20191;-66
2022/12/02 09:23:00;;;;;;;32.63;19.50;;;2.90;99.90;;;;;;5035743;28;20270;-66
2022/12/02 09:25:26;;;;;;;32.53;18.63;;;2.90;99.90;;;;;;5035390;28;20171;-66
2022/12/02 09:27:52;;;;;;;32.73;20.90;;;2.90;99.90;;;;;;5035268;28;20248;-66
2022/12/02 09:30:18;;;;;;;37.53;20.87;;;2.90;99.90;;;;;;5033849;28;20210;-66
2022/12/02 09:32:44;;;;;;;35.43;21.33;;;2.90;99.90;;;;;;5035526;28;20249;-66
2022/12/02 09:35:10;;;;;;;40.83;22.03;;;2.90;99.90;;;;;;5035218;28;20206;-66
2022/12/02 09:37:35;;;;;;;38.10;21.67;;;2.90;99.90;;;;;;5035226;28;20233;-66
2022/12/02 09:40:01;;;;;;;38.80;22.13;;;2.90;99.90;;;;;;5033715;28;20211;-66
2022/12/02 09:42:27;;;;;;;36.70;21.90;;;2.90;99.90;;;;;;5034933;28;20191;-66
2022/12/02 09:44:53;;;;;;;35.30;21.30;;;2.90;99.90;;;;;;5035026;28;20175;-66
2022/12/02 09:47:21;;;;;;;36.53;21.70;;;3.00;99.90;;;;;;5034844;28;20171;-66
2022/12/02 09:49:47;;;;;;;35.50;20.97;;;2.90;99.90;;;;;;5034941;28;20713;-66
2022/12/02 09:52:16;;;;;;;35.00;22.00;;;2.90;99.90;;;;;;5035216;28;20542;-66
2022/12/02 09:54:43;;;;;;;38.90;24.27;;;2.90;99.90;;;;;;5035451;28;20171;-66
2022/12/02 09:57:12;;;;;;;39.47;23.30;;;2.90;99.90;;;;;;5033540;28;20549;-66
2022/12/02 09:59:38;;;;;;;45.73;24.47;;;2.90;99.90;;;;;;5034975;28;20232;-66
2022/12/02 10:02:18;;;;;;;38.00;22.87;;;2.90;99.90;;;;;;5034550;28;20754;-70
2022/12/02 10:04:44;;;;;;;36.97;23.20;;;2.90;99.90;;;;;;5034865;28;20196;-70
2022/12/02 10:07:10;;;;;;;43.50;22.17;;;3.00;99.90;;;;;;5035012;28;20203;-70
2022/12/02 10:09:36;;;;;;;43.10;24.70;;;3.00;99.90;;;;;;5016112;28;20191;-70
2022/12/02 10:12:01;;;;;;;49.70;28.90;;;2.90;99.90;;;;;;5034302;28;20281;-70
2022/12/02 10:14:27;;;;;;;44.50;26.13;;;3.00;99.90;;;;;;5034468;28;20214;-70
2022/12/02 10:16:53;;;;;;;46.53;24.53;;;3.00;99.90;;;;;;5034275;28;20171;-70
2022/12/02 10:19:20;;;;;;;46.07;25.90;;;2.90;99.90;;;;;;5034635;28;20179;-70
2022/12/02 10:21:46;;;;;;;43.73;24.87;;;3.00;99.90;;;;;;5032976;28;20203;-70
2022/12/02 10:24:12;;;;;;;45.10;24.50;;;2.90;99.90;;;;;;5034306;28;20268;-70
2022/12/02 10:26:47;;;;;;;44.00;24.90;;;2.90;99.90;;;;;;5034508;28;20671;-70
2022/12/02 10:29:28;;;;;;;45.63;25.87;;;2.90;99.90;;;;;;5034263;28;20178;-70
2022/12/02 10:31:58;;;;;;;45.43;26.13;;;2.90;99.90;;;;;;5033938;28;20766;-70
2022/12/02 10:34:25;;;;;;;48.40;25.80;;;3.00;99.90;;;;;;5049566;28;20167;-70
2022/12/02 10:36:51;;;;;;;45.57;25.00;;;3.00;99.90;;;;;;5049390;28;20179;-70
2022/12/02 10:39:26;;;;;;;50.07;26.67;;;2.90;99.90;;;;;;5034024;28;20676;-70
2022/12/02 10:42:06;;;;;;;46.83;26.23;;;2.90;99.90;;;;;;5034017;28;20565;-70
2022/12/02 10:44:34;;;;;;;50.33;27.00;;;2.90;99.90;;;;;;5034299;28;20258;-70
2022/12/02 10:47:21;;;;;;;53.33;27.07;;;2.90;99.90;;;;;;5049141;28;20183;-70
2022/12/02 10:49:57;;;;;;;42.53;26.23;;;3.00;99.90;;;;;;5034094;28;20186;-70
2022/12/02 10:52:31;;;;;;;48.73;26.30;;;2.90;99.90;;;;;;5049189;28;20198;-70
2022/12/02 10:54:58;;;;;;;50.70;26.77;;;3.00;99.90;;;;;;5034353;28;20156;-70
2022/12/02 10:57:26;;;;;;;51.67;25.53;;;3.00;99.90;;;;;;5033816;28;20667;-70
2022/12/02 10:59:55;;;;;;;50.47;26.43;;;3.00;99.90;;;;;;5033920;28;20241;-69
2022/12/02 11:02:32;;;;;;;56.20;28.13;;;3.00;99.90;;;;;;5033484;28;20167;-70
2022/12/02 11:05:08;;;;;;;65.93;35.37;;;3.00;99.90;;;;;;5033670;28;20209;-70
2022/12/02 11:07:33;;;;;;;56.60;28.93;;;3.00;99.90;;;;;;5048957;28;20191;-70
2022/12/02 11:09:59;;;;;;;57.30;31.17;;;3.10;99.90;;;;;;5033426;28;20214;-70
2022/12/02 11:12:33;;;;;;;51.33;26.47;;;3.10;99.90;;;;;;5048786;28;20225;-70
2022/12/02 11:15:00;;;;;;;48.53;27.67;;;3.10;99.90;;;;;;5033801;28;20168;-70
2022/12/02 11:17:46;;;;;;;54.27;28.40;;;3.10;99.90;;;;;;5048911;28;20175;-70
2022/12/02 11:20:19;;;;;;;56.57;28.30;;;3.20;99.90;;;;;;5033317;28;20230;-70
2022/12/02 11:23:05;;;;;;;50.23;28.30;;;3.30;99.90;;;;;;5032790;28;20537;-70
2022/12/02 11:25:42;;;;;;;47.97;27.67;;;3.30;99.90;;;;;;5033726;28;20155;-70
2022/12/02 11:28:33;;;;;;;56.53;29.27;;;3.30;99.90;;;;;;5033102;28;20194;-70
2022/12/02 11:31:11;;;;;;;61.33;29.50;;;3.30;99.90;;;;;;4996887;28;20211;-70
2022/12/02 11:33:42;;;;;;;53.47;29.43;;;3.30;99.90;;;;;;5033577;28;20250;-70
2022/12/02 11:36:08;;;;;;;54.23;28.17;;;3.30;99.90;;;;;;5033292;28;20175;-70
2022/12/02 11:38:51;;;;;;;49.93;27.50;;;3.30;99.90;;;;;;5015557;28;20270;-70
2022/12/02 11:41:24;;;;;;;58.23;28.40;;;3.30;99.90;;;;;;5033195;28;20199;-70
2022/12/02 11:43:51;;;;;;;56.83;28.47;;;3.40;99.90;;;;;;5033484;28;20179;-70
2022/12/02 11:46:20;;;;;;;53.57;27.60;;;3.40;99.90;;;;;;5033097;28;20183;-69
2022/12/02 11:48:51;;;;;;;53.30;28.17;;;3.30;99.90;;;;;;5033447;28;20687;-70
2022/12/02 11:51:39;;;;;;;58.53;28.27;;;3.30;99.90;;;;;;5033113;28;20199;-70
2022/12/02 11:54:11;;;;;;;54.30;29.57;;;3.40;99.90;;;;;;5033355;28;20158;-70
2022/12/02 11:56:38;;;;;;;60.93;28.57;;;3.40;99.90;;;;;;5033350;28;20159;-70
2022/12/02 11:59:25;;;;;;;56.77;29.43;;;3.40;99.90;;;;;;5033690;28;20171;-70
2022/12/02 12:02:10;;;;;;;61.57;28.83;;;3.40;99.90;;;;;;5032844;28;20191;-70
2022/12/02 12:04:36;;;;;;;53.10;27.60;;;3.30;99.90;;;;;;5033262;28;20160;-70
2022/12/02 12:07:02;;;;;;;54.33;28.73;;;3.30;99.90;;;;;;5032996;28;20180;-70
2022/12/02 12:09:29;;;;;;;57.60;29.93;;;3.30;99.90;;;;;;5032808;28;20190;-70
2022/12/02 12:12:17;;;;;;;58.13;30.73;;;3.30;99.90;;;;;;5032983;28;20227;-70
2022/12/02 12:14:53;;;;;;;58.13;30.67;;;3.30;99.90;;;;;;5031628;28;20171;-70
2022/12/02 12:17:37;;;;;;;61.67;31.70;;;3.30;99.90;;;;;;5032793;28;20206;-70
2022/12/02 12:20:04;;;;;;;59.07;31.20;;;3.30;99.90;;;;;;5015007;28;20199;-70
2022/12/02 12:22:30;;;;;;;55.40;30.40;;;3.30;99.90;;;;;;5032830;28;20289;-70
2022/12/02 12:25:33;;;;;;;59.27;32.83;;;3.20;99.90;;;;;;5031577;28;20179;-70
2022/12/02 12:27:59;;;;;;;53.57;29.27;;;3.20;99.90;;;;;;5032695;28;20214;-70
2022/12/02 12:30:24;;;;;;;60.10;33.07;;;3.10;99.90;;;;;;5031294;28;20570;-69
2022/12/02 12:32:50;;;;;;;56.60;30.13;;;3.10;99.90;;;;;;5033468;28;20696;-70
2022/12/02 12:35:16;;;;;;;54.30;31.07;;;3.10;99.90;;;;;;5036391;28;20600;-69
2022/12/02 12:37:42;;;;;;;55.10;30.33;;;3.20;99.90;;;;;;5035146;28;20182;-69
2022/12/02 12:40:08;;;;;;;62.03;31.07;;;3.10;99.90;;;;;;5036653;28;20550;-69
2022/12/02 12:42:34;;;;;;;67.47;31.70;;;3.10;99.90;;;;;;5036883;28;20655;-69
2022/12/02 12:44:59;;;;;;;58.60;29.63;;;3.10;99.90;;;;;;5037282;28;20179;-69
2022/12/02 12:47:25;;;;;;;60.33;31.93;;;3.20;99.90;;;;;;5036593;28;20179;-69
2022/12/02 12:49:51;;;;;;;56.20;29.70;;;3.10;99.90;;;;;;5036636;28;20658;-70